Time;durP1;ratioP1;P1;durP2;ratioP2;P2;SDS_P1;SDS_P2;PMS_P1;PMS_P2;Temp;Humidity;BMP_temperature;BMP_pressure;BME280_temperature;BME280_humidity;BME280_pressure;Samples;Min_cycle;Max_cycle;Signal;HPM_P1;HPM_P2
2023/09/22 00:01:13;;;;;;;;;;;;;;;29.45;82.17;100817.75;5007809;28;65882;-38
2023/09/22 00:03:42;;;;;;;;;;;;;;;29.43;83.32;100825.28;5009116;28;69711;-38
2023/09/22 00:06:12;;;;;;;;;;;;;;;29.37;83.89;100816.16;5008876;28;67139;-38
2023/09/22 00:08:42;;;;;;;;;;;;;;;29.39;83.87;100820.28;5013271;28;70960;-38
2023/09/22 00:11:12;;;;;;;;;;;;;;;29.44;83.53;100826.91;5011086;28;65774;-39
2023/09/22 00:13:42;;;;;;;;;;;;;;;29.52;83.11;100834.81;5015326;28;69981;-38
2023/09/22 00:16:12;;;;;;;;;;;;;;;29.60;83.16;100842.69;5011551;28;66254;-39
2023/09/22 00:18:41;;;;;;;;;;;;;;;29.62;82.78;100851.41;5011696;28;70279;-37
2023/09/22 00:21:11;;;;;;;;;;;;;;;29.60;79.37;100850.78;5012803;28;66010;-38
2023/09/22 00:23:40;;;;;;;;;;;;;;;29.61;77.90;100852.44;5014102;28;70720;-38
2023/09/22 00:26:10;;;;;;;;;;;;;;;29.63;76.97;100853.09;5011790;28;66190;-38
2023/09/22 00:28:41;;;;;;;;;;;;;;;29.66;76.16;100868.06;5011151;28;69990;-37
2023/09/22 00:31:11;;;;;;;;;;;;;;;29.69;75.82;100873.03;5014079;28;65599;-38
2023/09/22 00:33:40;;;;;;;;;;;;;;;29.73;76.15;100863.47;4993299;28;69665;-37
2023/09/22 00:36:11;;;;;;;;;;;;;;;29.74;76.05;100865.94;5017706;28;65833;-38
2023/09/22 00:38:41;;;;;;;;;;;;;;;29.77;74.83;100864.69;4996764;28;70641;-38
2023/09/22 00:41:10;;;;;;;;;;;;;;;29.78;74.57;100872.63;5015236;28;66193;-38
2023/09/22 00:43:40;;;;;;;;;;;;;;;29.81;74.28;100877.59;5009732;28;70658;-39
2023/09/22 00:46:12;;;;;;;;;;;;;;;29.84;75.16;100882.56;5017552;28;66024;-38
2023/09/22 00:48:42;;;;;;;;;;;;;;;29.88;73.90;100871.31;5016790;28;69861;-38
2023/09/22 00:51:12;;;;;;;;;;;;;;;29.91;74.00;100887.94;5009836;28;66435;-38
2023/09/22 00:53:42;;;;;;;;;;;;;;;29.93;73.48;100876.94;5010685;28;70295;-36
2023/09/22 00:56:12;;;;;;;;;;;;;;;29.96;73.18;100881.91;5016657;28;66077;-38
2023/09/22 00:58:42;;;;;;;;;;;;;;;29.97;73.36;100888.97;4999711;28;70052;-37
2023/09/22 01:01:11;;;;;;;;;;;;;;;29.99;73.40;100884.19;5011558;28;66773;-38
2023/09/22 01:03:41;;;;;;;;;;;;;;;30.01;73.41;100892.91;5019699;28;70374;-37
2023/09/22 01:06:11;;;;;;;;;;;;;;;30.03;73.15;100883.53;5009918;28;65792;-36
2023/09/22 01:08:41;;;;;;;;;;;;;;;30.05;73.02;100896.84;5011269;28;70592;-37
2023/09/22 01:11:11;;;;;;;;;;;;;;;30.08;72.55;100901.00;5017058;28;67034;-37
2023/09/22 01:13:42;;;;;;;;;;;;;;;30.10;72.87;100888.09;4998793;28;70036;-38
2023/09/22 01:16:12;;;;;;;;;;;;;;;29.95;72.44;100889.19;5018044;28;66538;-38
2023/09/22 01:18:41;;;;;;;;;;;;;;;30.13;72.20;100902.00;5002035;28;70398;-37
2023/09/22 01:21:12;;;;;;;;;;;;;;;30.14;72.13;100898.25;5016091;28;66358;-37
2023/09/22 01:23:42;;;;;;;;;;;;;;;30.16;72.26;100900.75;5010390;28;70443;-39
2023/09/22 01:26:12;;;;;;;;;;;;;;;30.18;72.33;100899.50;5013112;28;66621;-37
2023/09/22 01:28:42;;;;;;;;;;;;;;;30.20;72.02;100896.56;5020150;28;69709;-37
2023/09/22 01:31:11;;;;;;;;;;;;;;;30.20;71.91;100902.81;5008819;28;67208;-37
2023/09/22 01:33:41;;;;;;;;;;;;;;;30.23;71.70;100901.59;5008253;28;70707;-37
2023/09/22 01:36:15;;;;;;;;;;;;;;;30.25;71.98;100904.88;5010657;28;66910;-36
2023/09/22 01:38:45;;;;;;;;;;;;;;;30.26;71.79;100901.97;4991610;28;70083;-36
2023/09/22 01:41:16;;;;;;;;;;;;;;;30.28;71.39;100908.03;5013456;28;67244;-37
2023/09/22 01:43:46;;;;;;;;;;;;;;;30.31;71.17;100908.63;5014691;28;69853;-40
2023/09/22 01:46:16;;;;;;;;;;;;;;;30.33;71.53;100911.94;5008860;28;65862;-38
2023/09/22 01:48:45;;;;;;;;;;;;;;;30.35;71.50;100910.69;5012252;28;71223;-38
2023/09/22 01:51:17;;;;;;;;;;;;;;;30.38;71.26;100918.38;5006432;28;65146;-39
2023/09/22 01:53:47;;;;;;;;;;;;;;;30.40;71.36;100910.03;5004365;28;69516;-39
2023/09/22 01:56:16;;;;;;;;;;;;;;;30.42;70.71;100910.63;5014332;28;66555;-39
2023/09/22 01:58:46;;;;;;;;;;;;;;;30.44;71.04;100913.97;5015085;28;69638;-43
2023/09/22 02:01:17;;;;;;;;;;;;;;;30.46;70.64;100912.69;5009916;28;66686;-37
2023/09/22 02:03:52;;;;;;;;;;;;;;;30.49;70.67;100911.44;5008763;28;69724;-37
2023/09/22 02:06:21;;;;;;;;;;;;;;;30.49;70.88;100912.25;4994875;28;66660;-36
2023/09/22 02:08:51;;;;;;;;;;;;;;;30.54;70.45;100899.97;5014517;28;69409;-38
2023/09/22 02:11:21;;;;;;;;;;;;;;;30.56;70.84;100906.78;5016419;28;66988;-37
2023/09/22 02:13:50;;;;;;;;;;;;;;;30.59;70.50;100898.28;5014826;28;70596;-37
2023/09/22 02:16:20;;;;;;;;;;;;;;;30.62;70.67;100895.13;4996445;28;66974;-37
2023/09/22 02:18:50;;;;;;;;;;;;;;;30.64;70.32;100889.47;5012545;28;69855;-38
2023/09/22 02:21:20;;;;;;;;;;;;;;;30.66;70.66;100882.78;5010220;28;65385;-38
2023/09/22 02:23:49;;;;;;;;;;;;;;;30.67;70.13;100879.06;5008355;28;70118;-44
2023/09/22 02:26:20;;;;;;;;;;;;;;;30.71;70.10;100880.25;5015018;28;66154;-37
2023/09/22 02:28:51;;;;;;;;;;;;;;;30.73;70.48;100882.75;5009906;28;70509;-37
2023/09/22 02:31:21;;;;;;;;;;;;;;;30.76;70.20;100884.19;5014339;28;66847;-39
2023/09/22 02:33:51;;;;;;;;;;;;;;;30.78;69.81;100882.09;5025558;28;69526;-38
2023/09/22 02:36:20;;;;;;;;;;;;;;;30.80;70.28;100882.75;5020958;28;66202;-36
2023/09/22 02:38:50;;;;;;;;;;;;;;;30.81;69.84;100887.91;5019199;28;70394;-36
2023/09/22 02:41:19;;;;;;;;;;;;;;;30.84;69.93;100881.22;5016999;28;66042;-36
2023/09/22 02:43:49;;;;;;;;;;;;;;;30.87;69.88;100886.22;5000369;28;70079;-36
2023/09/22 02:46:18;;;;;;;;;;;;;;;30.90;69.86;100881.19;5013060;28;67157;-38
2023/09/22 02:48:48;;;;;;;;;;;;;;;30.90;70.01;100874.97;5001057;28;70385;-37
2023/09/22 02:51:18;;;;;;;;;;;;;;;30.93;69.67;100874.50;5027361;28;66332;-36
2023/09/22 02:53:50;;;;;;;;;;;;;;;30.96;69.84;100871.34;5001067;28;70071;-37
2023/09/22 02:56:20;;;;;;;;;;;;;;;30.99;69.58;100875.50;5015784;28;66608;-37
2023/09/22 02:58:49;;;;;;;;;;;;;;;30.99;69.48;100873.63;5023962;28;70764;-36
2023/09/22 03:01:19;;;;;;;;;;;;;;;31.02;69.68;100864.22;5019407;28;66918;-36
2023/09/22 03:03:50;;;;;;;;;;;;;;;31.03;69.49;100863.16;5015309;28;68938;-38
2023/09/22 03:06:20;;;;;;;;;;;;;;;31.04;69.01;100862.97;5022801;28;66522;-40
2023/09/22 03:08:50;;;;;;;;;;;;;;;31.06;69.24;100868.97;5003536;28;70880;-37
2023/09/22 03:11:19;;;;;;;;;;;;;;;31.08;69.12;100863.34;5013360;28;66406;-37
2023/09/22 03:13:49;;;;;;;;;;;;;;;31.08;69.22;100856.03;5004557;28;70553;-38
2023/09/22 03:16:19;;;;;;;;;;;;;;;31.09;68.91;100857.72;5003008;28;66593;-37
2023/09/22 03:18:49;;;;;;;;;;;;;;;31.12;69.17;100853.69;5002612;28;69930;-38
2023/09/22 03:21:22;;;;;;;;;;;;;;;31.13;69.10;100853.50;5022983;28;66183;-37
2023/09/22 03:23:53;;;;;;;;;;;;;;;31.15;68.80;100845.16;5018894;28;70933;-38
2023/09/22 03:26:23;;;;;;;;;;;;;;;31.14;68.62;100838.88;4998774;28;66900;-37
2023/09/22 03:28:52;;;;;;;;;;;;;;;31.19;69.04;100840.09;5014288;28;69277;-37
2023/09/22 03:31:23;;;;;;;;;;;;;;;31.20;68.55;100836.34;5014255;28;66197;-37
2023/09/22 03:33:53;;;;;;;;;;;;;;;31.22;68.90;100828.81;4995608;28;70418;-39
2023/09/22 03:36:22;;;;;;;;;;;;;;;31.23;68.91;100825.91;4992347;28;66714;-41
2023/09/22 03:38:52;;;;;;;;;;;;;;;31.24;68.76;100821.28;4983915;28;70050;-38
2023/09/22 03:41:25;;;;;;;;;;;;;;;31.26;68.56;100819.16;5013593;28;66547;-37
2023/09/22 03:43:55;;;;;;;;;;;;;;;31.28;68.48;100806.22;4982273;28;69992;-36
2023/09/22 03:46:25;;;;;;;;;;;;;;;31.29;68.44;100797.88;5020962;28;66106;-38
2023/09/22 03:48:54;;;;;;;;;;;;;;;31.32;68.32;100800.16;5009729;28;70204;-37
2023/09/22 03:51:24;;;;;;;;;;;;;;;31.33;68.41;100795.53;5009121;28;67010;-37
2023/09/22 03:53:54;;;;;;;;;;;;;;;31.34;68.42;100789.06;5001405;28;69888;-37
2023/09/22 03:56:24;;;;;;;;;;;;;;;31.22;68.43;100785.47;5015363;28;67345;-38
2023/09/22 03:58:56;;;;;;;;;;;;;;;31.02;67.58;100781.06;5000108;28;63873;-38
2023/09/22 04:01:26;;;;;;;;;;;;;;;30.86;66.91;100776.22;4997709;28;67077;-37
2023/09/22 04:03:55;;;;;;;;;;;;;;;30.72;66.21;100773.59;5017390;28;69063;-37
2023/09/22 04:06:25;;;;;;;;;;;;;;;30.63;65.42;100772.22;5016813;28;66058;-36
2023/09/22 04:08:56;;;;;;;;;;;;;;;30.54;64.48;100768.16;4998894;28;70045;-37
2023/09/22 04:11:26;;;;;;;;;;;;;;;30.44;63.61;100763.22;4999473;28;66780;-37
2023/09/22 04:13:57;;;;;;;;;;;;;;;30.37;62.71;100762.47;5007514;28;70919;-37
2023/09/22 04:16:26;;;;;;;;;;;;;;;30.33;62.03;100755.81;5017525;28;66616;-37
2023/09/22 04:18:56;;;;;;;;;;;;;;;30.28;61.41;100753.78;5017707;28;70134;-36
2023/09/22 04:21:26;;;;;;;;;;;;;;;30.23;61.07;100756.31;5009385;28;65477;-36
2023/09/22 04:23:58;;;;;;;;;;;;;;;30.18;60.38;100747.97;4991650;28;69755;-37
2023/09/22 04:26:29;;;;;;;;;;;;;;;30.16;59.44;100750.06;5009204;28;66193;-37
2023/09/22 04:28:59;;;;;;;;;;;;;;;30.14;58.77;100744.03;5013314;28;69949;-36
2023/09/22 04:31:29;;;;;;;;;;;;;;;30.10;58.79;100747.41;5016987;28;66192;-37
2023/09/22 04:33:59;;;;;;;;;;;;;;;30.10;57.58;100740.13;5004220;28;69992;-37
2023/09/22 04:36:30;;;;;;;;;;;;;;;30.06;57.40;100733.47;5008864;28;65896;-36
2023/09/22 04:39:00;;;;;;;;;;;;;;;30.04;57.03;100730.19;5012562;28;70345;-36
2023/09/22 04:41:29;;;;;;;;;;;;;;;30.02;56.45;100726.88;5014364;28;66673;-37
2023/09/22 04:43:59;;;;;;;;;;;;;;;30.01;56.52;100714.41;5016918;28;69705;-36
2023/09/22 04:46:29;;;;;;;;;;;;;;;30.02;55.67;100716.06;5016219;28;66951;-36
2023/09/22 04:48:58;;;;;;;;;;;;;;;30.02;57.89;100705.22;5017129;28;69302;-36
2023/09/22 04:51:28;;;;;;;;;;;;;;;29.99;57.50;100717.31;5014343;28;65735;-37
2023/09/22 04:53:57;;;;;;;;;;;;;;;30.02;56.74;100706.06;5021052;28;70587;-39
2023/09/22 04:56:31;;;;;;;;;;;;;;;30.01;55.70;100703.59;4993998;28;65243;-37
2023/09/22 04:59:01;;;;;;;;;;;;;;;30.00;55.74;100697.31;4998302;28;70361;-37
2023/09/22 05:01:31;;;;;;;;;;;;;;;30.00;55.07;100693.78;5020406;28;66274;-37
2023/09/22 05:04:01;;;;;;;;;;;;;;;29.98;55.02;100688.63;5016365;28;70638;-37
2023/09/22 05:06:31;;;;;;;;;;;;;;;30.01;54.52;100687.34;5019032;28;66985;-36
2023/09/22 05:09:03;;;;;;;;;;;;;;;30.00;53.92;100678.38;5008788;28;69304;-37
2023/09/22 05:11:33;;;;;;;;;;;;;;;30.02;53.53;100672.78;5018903;28;66182;-37
2023/09/22 05:14:06;;;;;;;;;;;;;;;29.99;53.42;100657.81;5015210;28;70574;-36
2023/09/22 05:16:37;;;;;;;;;;;;;;;30.01;53.09;100665.72;5019799;28;66504;-38
2023/09/22 05:19:10;;;;;;;;;;;;;;;30.05;53.95;100659.63;5013059;28;68879;-37
2023/09/22 05:21:40;;;;;;;;;;;;;;;30.08;53.62;100661.06;5025044;28;66440;-36
2023/09/22 05:24:10;;;;;;;;;;;;;;;30.09;53.55;100651.94;5016055;28;70580;-37
2023/09/22 05:26:39;;;;;;;;;;;;;;;30.09;53.69;100645.66;5018112;28;66086;-37
2023/09/22 05:29:10;;;;;;;;;;;;;;;30.09;53.01;100646.50;5012266;28;69864;-37
2023/09/22 05:31:39;;;;;;;;;;;;;;;30.11;52.96;100638.97;5015199;28;66255;-37
2023/09/22 05:34:09;;;;;;;;;;;;;;;30.11;52.26;100644.41;5019248;28;69293;-36
2023/09/22 05:36:39;;;;;;;;;;;;;;;30.14;51.72;100632.31;5011989;28;66676;-36
2023/09/22 05:39:10;;;;;;;;;;;;;;;30.11;51.90;100632.75;5018695;28;70168;-36
2023/09/22 05:41:40;;;;;;;;;;;;;;;30.12;52.07;100624.44;5016653;28;67140;-36
2023/09/22 05:44:09;;;;;;;;;;;;;;;30.11;51.96;100620.03;5003550;28;69217;-39
2023/09/22 05:46:39;;;;;;;;;;;;;;;30.12;52.60;100624.44;5017733;28;66964;-39
2023/09/22 05:49:14;;;;;;;;;;;;;;;30.10;52.15;100621.09;5024384;28;70518;-36
2023/09/22 05:51:44;;;;;;;;;;;;;;;30.11;51.96;100622.75;5013661;28;65459;-38
2023/09/22 05:54:13;;;;;;;;;;;;;;;30.14;51.37;100627.72;5034740;28;70084;-36
2023/09/22 05:56:43;;;;;;;;;;;;;;;30.13;51.47;100617.13;5032436;28;67809;-37
2023/09/22 05:59:12;;;;;;;;;;;;;;;30.13;51.15;100614.44;5020414;28;69820;-37
2023/09/22 06:01:42;;;;;;;;;;;;;;;30.10;51.06;100607.59;5004461;28;66000;-37
2023/09/22 06:04:12;;;;;;;;;;;;;;;30.09;50.69;100611.34;5017274;28;70504;-37
2023/09/22 06:06:42;;;;;;;;;;;;;;;30.06;50.72;100600.94;5022502;28;66829;-36
2023/09/22 06:09:13;;;;;;;;;;;;;;;30.06;50.29;100598.25;5011298;28;69793;-41
2023/09/22 06:11:42;;;;;;;;;;;;;;;30.05;50.36;100599.31;5021637;28;66015;-37
2023/09/22 06:14:12;;;;;;;;;;;;;;;30.05;50.06;100586.59;5017966;28;69341;-37
2023/09/22 06:16:43;;;;;;;;;;;;;;;30.02;50.33;100586.22;5008606;28;66900;-37
2023/09/22 06:19:12;;;;;;;;;;;;;;;30.02;49.93;100591.63;5023198;28;70173;-40
2023/09/22 06:21:43;;;;;;;;;;;;;;;30.00;50.04;100599.13;5021150;28;66448;-37
2023/09/22 06:24:13;;;;;;;;;;;;;;;29.98;50.77;100591.25;5019302;28;71561;-37
2023/09/22 06:26:42;;;;;;;;;;;;;;;29.97;51.00;100578.75;5019714;28;66207;-36
2023/09/22 06:29:12;;;;;;;;;;;;;;;29.99;50.35;100565.03;5019252;28;69112;-37
2023/09/22 06:31:41;;;;;;;;;;;;;;;29.93;51.06;100565.94;5016529;28;67086;-37
2023/09/22 06:34:11;;;;;;;;;;;;;;;29.93;52.25;100563.22;5021769;28;70295;-36
2023/09/22 06:36:41;;;;;;;;;;;;;;;29.93;52.48;100561.34;5004629;28;65845;-37
2023/09/22 06:39:11;;;;;;;;;;;;;;;29.95;52.42;100558.41;5020059;28;69533;-38
2023/09/22 06:41:41;;;;;;;;;;;;;;;29.93;52.53;100560.50;4989932;28;66034;-37
2023/09/22 06:44:11;;;;;;;;;;;;;;;29.93;52.13;100560.50;5006349;28;70512;-36
2023/09/22 06:46:40;;;;;;;;;;;;;;;29.92;52.21;100545.31;5017559;28;65669;-37
2023/09/22 06:49:10;;;;;;;;;;;;;;;29.91;51.47;100547.19;4993410;28;69912;-37
2023/09/22 06:51:40;;;;;;;;;;;;;;;29.91;51.72;100535.56;4986527;28;66190;-36
2023/09/22 06:54:10;;;;;;;;;;;;;;;29.91;51.34;100532.84;5017384;28;70643;-38
2023/09/22 06:56:40;;;;;;;;;;;;;;;29.89;51.21;100516.03;5010692;28;66664;-37
2023/09/22 06:59:18;;;;;;;;;;;;;;;29.93;51.62;100530.78;4992191;28;69490;-36
2023/09/22 07:01:48;;;;;;;;;;;;;;;29.91;50.90;100536.38;4992148;28;66203;-38
2023/09/22 07:04:19;;;;;;;;;;;;;;;29.92;50.93;100538.06;5018325;28;70729;-37
2023/09/22 07:06:48;;;;;;;;;;;;;;;30.08;50.38;100538.53;5020852;28;66704;-38
2023/09/22 07:09:18;;;;;;;;;;;;;;;30.11;49.96;100544.31;4996905;28;69922;-40
2023/09/22 07:11:48;;;;;;;;;;;;;;;30.12;49.87;100548.69;5014077;28;65775;-37
2023/09/22 07:14:18;;;;;;;;;;;;;;;30.15;49.02;100559.06;4993140;28;69010;-36
2023/09/22 07:16:49;;;;;;;;;;;;;;;30.15;48.90;100558.22;5012593;28;65260;-36
2023/09/22 07:19:18;;;;;;;;;;;;;;;30.12;48.88;100543.28;4994738;28;69785;-36
2023/09/22 07:21:48;;;;;;;;;;;;;;;30.13;48.43;100544.91;5011513;28;66837;-37
2023/09/22 07:24:18;;;;;;;;;;;;;;;30.13;48.12;100538.69;4994221;28;70175;-38
2023/09/22 07:26:50;;;;;;;;;;;;;;;30.10;48.14;100531.84;5022233;28;66801;-37
2023/09/22 07:29:20;;;;;;;;;;;;;;;30.10;48.15;100523.72;5015445;28;70204;-37
2023/09/22 07:31:50;;;;;;;;;;;;;;;30.10;47.45;100522.91;5015431;28;65715;-36
2023/09/22 07:34:21;;;;;;;;;;;;;;;30.09;47.71;100526.66;5016190;28;69332;-36
2023/09/22 07:36:51;;;;;;;;;;;;;;;30.08;47.19;100525.81;5016346;28;66080;-38
2023/09/22 07:39:32;;;;;;;;;;;;;;;30.05;47.26;100512.75;5010815;28;70745;-42
2023/09/22 07:42:03;;;;;;;;;;;;;;;30.04;46.78;100503.81;5016556;28;66128;-36
2023/09/22 07:44:32;;;;;;;;;;;;;;;30.03;46.62;100495.91;5011725;28;69666;-37
2023/09/22 07:47:09;;;;;;;;;;;;;;;30.04;46.87;100481.34;5020498;28;66380;-41
2023/09/22 07:49:42;;;;;;;;;;;;;;;29.76;46.73;100447.53;5012745;28;70496;-37
2023/09/22 07:52:13;;;;;;;;;;;;;;;29.98;46.23;100476.84;5014404;28;65748;-37
2023/09/22 07:54:42;;;;;;;;;;;;;;;29.97;46.22;100464.34;5012577;28;69186;-37
2023/09/22 07:57:13;;;;;;;;;;;;;;;29.98;46.08;100457.91;5020321;28;65849;-36
2023/09/22 07:59:42;;;;;;;;;;;;;;;29.97;46.59;100448.13;5014242;28;69140;-38
2023/09/22 08:02:12;;;;;;;;;;;;;;;29.94;45.86;100459.41;5003471;28;65455;-36
2023/09/22 08:04:41;;;;;;;;;;;;;;;29.98;46.08;100474.16;4999936;28;69867;-36
2023/09/22 08:07:13;;;;;;;;;;;;;;;29.94;46.43;100481.03;5016584;28;66648;-37
2023/09/22 08:09:43;;;;;;;;;;;;;;;29.95;45.94;100483.53;5019649;28;70238;-37
2023/09/22 08:12:14;;;;;;;;;;;;;;;29.94;45.95;100484.56;5013670;28;66577;-37
2023/09/22 08:14:45;;;;;;;;;;;;;;;29.93;45.72;100487.50;4989938;28;69950;-37
2023/09/22 08:17:25;;;;;;;;;;;;;;;29.93;45.64;100484.81;5013518;28;66072;-37
2023/09/22 08:19:55;;;;;;;;;;;;;;;29.90;45.47;100486.06;5017096;28;70611;-36
2023/09/22 08:22:26;;;;;;;;;;;;;;;29.91;45.23;100476.06;5013661;28;67170;-36
2023/09/22 08:24:56;;;;;;;;;;;;;;;29.89;45.67;100464.66;5019304;28;70513;-36
2023/09/22 08:27:29;;;;;;;;;;;;;;;29.90;45.35;100474.44;5014350;28;67481;-38
2023/09/22 08:30:02;;;;;;;;;;;;;;;29.91;45.38;100471.50;5022084;28;69796;-39
2023/09/22 08:32:32;;;;;;;;;;;;;;;29.91;45.46;100476.06;5019125;28;66919;-38
2023/09/22 08:35:02;;;;;;;;;;;;;;;29.67;45.21;100427.25;5017500;28;69694;-36
2023/09/22 08:37:33;;;;;;;;;;;;;;;29.91;45.04;100443.63;5014629;28;66242;-37
2023/09/22 08:40:08;;;;;;;;;;;;;;;29.93;44.92;100430.72;5017510;28;69279;-37
2023/09/22 08:42:38;;;;;;;;;;;;;;;29.90;44.85;100426.59;5014396;28;66370;-37
2023/09/22 08:45:07;;;;;;;;;;;;;;;29.88;44.76;100417.84;5012259;28;68998;-37
2023/09/22 08:47:41;;;;;;;;;;;;;;;29.90;45.10;100420.34;5013165;28;66810;-39
2023/09/22 08:50:11;;;;;;;;;;;;;;;29.92;45.17;100434.44;5009027;28;69808;-36
2023/09/22 08:52:42;;;;;;;;;;;;;;;29.93;45.05;100457.75;5019258;28;66736;-37
2023/09/22 08:55:13;;;;;;;;;;;;;;;29.91;44.55;100462.56;5020963;28;69744;-38
2023/09/22 08:57:45;;;;;;;;;;;;;;;29.90;44.83;100436.56;5032831;28;66284;-37
2023/09/22 09:00:19;;;;;;;;;;;;;;;29.89;44.21;100402.47;5021480;28;70173;-36
2023/09/22 09:02:50;;;;;;;;;;;;;;;29.89;44.24;100418.69;5026103;28;66690;-37
2023/09/22 09:05:20;;;;;;;;;;;;;;;29.90;44.81;100460.91;5022878;28;70891;-36
2023/09/22 09:07:50;;;;;;;;;;;;;;;29.88;44.97;100487.34;5024251;28;66286;-36
2023/09/22 09:10:27;;;;;;;;;;;;;;;29.87;44.91;100473.00;5022652;28;69942;-36
2023/09/22 09:13:01;;;;;;;;;;;;;;;29.86;45.04;100435.34;5023901;28;65456;-37
2023/09/22 09:15:43;;;;;;;;;;;;;;;29.86;44.42;100429.94;5017965;28;69594;-36
2023/09/22 09:18:15;;;;;;;;;;;;;;;29.84;44.62;100436.41;5007659;28;66352;-35
2023/09/22 09:20:49;;;;;;;;;;;;;;;29.87;44.78;100429.75;5023597;28;70019;-36
2023/09/22 09:23:20;;;;;;;;;;;;;;;29.83;45.11;100437.44;5021319;28;66803;-36
2023/09/22 09:25:50;;;;;;;;;;;;;;;29.83;45.13;100450.16;5025755;28;69922;-38
2023/09/22 09:28:21;;;;;;;;;;;;;;;29.83;45.51;100459.06;5020584;28;65932;-37
2023/09/22 09:30:52;;;;;;;;;;;;;;;29.83;45.57;100463.66;5017313;28;68843;-36
2023/09/22 09:33:23;;;;;;;;;;;;;;;29.81;45.56;100463.06;5021899;28;65259;-36
2023/09/22 09:35:54;;;;;;;;;;;;;;;29.65;45.28;100445.56;5017812;28;69961;-39
2023/09/22 09:38:28;;;;;;;;;;;;;;;29.77;44.95;100481.59;5025298;28;66939;-36
2023/09/22 09:41:00;;;;;;;;;;;;;;;29.79;45.59;100495.72;5003244;28;69383;-37
2023/09/22 09:43:31;;;;;;;;;;;;;;;29.79;44.64;100514.66;5015604;28;65705;-37
2023/09/22 09:46:01;;;;;;;;;;;;;;;29.80;44.81;100507.38;5024692;28;69916;-37
2023/09/22 09:48:37;;;;;;;;;;;;;;;29.79;45.45;100511.97;5014545;28;66526;-36
2023/09/22 09:51:11;;;;;;;;;;;;;;;29.78;45.54;100514.88;5019582;28;70552;-37
2023/09/22 09:53:45;;;;;;;;;;;;;;;29.82;45.40;100516.91;5019581;28;66684;-37
2023/09/22 09:56:16;;;;;;;;;;;;;;;29.80;45.64;100521.72;5020136;28;70040;-37
2023/09/22 09:58:46;;;;;;;;;;;;;;;29.81;45.90;100530.66;5013467;28;67581;-36
2023/09/22 10:01:18;;;;;;;;;;;;;;;29.79;45.70;100538.16;4998561;28;69860;-37
2023/09/22 10:03:49;;;;;;;;;;;;;;;29.50;45.58;100504.47;5016176;28;65178;-38
2023/09/22 10:06:21;;;;;;;;;;;;;;;29.76;45.85;100555.66;5022951;28;71528;-38
2023/09/22 10:08:54;;;;;;;;;;;;;;;29.77;46.16;100560.00;5015876;28;65642;-36
2023/09/22 10:11:24;;;;;;;;;;;;;;;29.72;46.09;100576.06;5010466;28;70260;-41
2023/09/22 10:13:54;;;;;;;;;;;;;;;29.73;46.29;100582.31;5010790;28;66963;-37
2023/09/22 10:16:28;;;;;;;;;;;;;;;29.79;47.40;100570.63;5007944;28;68769;-36
2023/09/22 10:19:02;;;;;;;;;;;;;;;29.79;48.20;100573.31;5018940;28;66042;-37
2023/09/22 10:21:38;;;;;;;;;;;;;;;29.78;56.01;100580.59;5011993;28;70604;-38
2023/09/22 10:24:15;;;;;;;;;;;;;;;29.91;62.54;100582.34;5006247;28;66182;-40
2023/09/22 10:26:54;;;;;;;;;;;;;;;30.01;65.53;100584.56;4993370;28;69021;-38
2023/09/22 10:29:52;;;;;;;;;;;;;;;30.09;67.48;100587.00;5009004;28;66063;-39
2023/09/22 10:32:23;;;;;;;;;;;;;;;30.20;69.16;100593.53;5012050;28;69248;-40
2023/09/22 10:34:54;;;;;;;;;;;;;;;30.26;69.88;100604.34;4990295;28;66028;-39
2023/09/22 10:37:32;;;;;;;;;;;;;;;30.33;70.96;100614.28;5008745;28;69333;-43
2023/09/22 10:40:08;;;;;;;;;;;;;;;30.41;71.36;100632.94;5003562;28;66318;-39
2023/09/22 10:42:42;;;;;;;;;;;;;;;30.44;71.68;100637.91;5014875;28;69635;-38
2023/09/22 10:45:13;;;;;;;;;;;;;;;30.49;71.90;100641.59;5007352;28;66047;-39
2023/09/22 10:47:43;;;;;;;;;;;;;;;30.53;72.20;100639.25;5010837;28;70340;-38
2023/09/22 10:50:43;;;;;;;;;;;;;;;30.56;72.68;100644.22;5010727;28;67023;-40
2023/09/22 10:53:12;;;;;;;;;;;;;;;30.59;73.96;100642.94;5009488;28;69749;-39
2023/09/22 10:55:43;;;;;;;;;;;;;;;30.61;74.62;100638.97;5012420;28;66930;-38
2023/09/22 10:58:18;;;;;;;;;;;;;;;30.61;75.14;100628.13;5009527;28;71048;-39
2023/09/22 11:00:54;;;;;;;;;;;;;;;30.62;74.97;100627.09;5011574;28;65983;-39
2023/09/22 11:03:24;;;;;;;;;;;;;;;30.62;75.04;100623.53;5009818;28;70691;-40
2023/09/22 11:06:06;;;;;;;;;;;;;;;30.62;75.18;100621.69;5009297;28;67488;-39
2023/09/22 11:08:57;;;;;;;;;;;;;;;30.64;75.55;100637.69;5006752;28;70367;-38
2023/09/22 11:11:28;;;;;;;;;;;;;;;30.64;75.53;100643.09;5013328;28;66174;-38
2023/09/22 11:13:57;;;;;;;;;;;;;;;30.64;75.61;100664.75;5012306;28;70089;-38
2023/09/22 11:16:29;;;;;;;;;;;;;;;30.62;75.30;100685.81;5010809;28;65564;-39
2023/09/22 11:19:06;;;;;;;;;;;;;;;30.63;76.14;100701.84;5010543;28;69883;-39
2023/09/22 11:21:39;;;;;;;;;;;;;;;30.63;76.18;100718.09;5011704;28;66187;-38
2023/09/22 11:24:09;;;;;;;;;;;;;;;30.63;75.88;100715.38;5010269;28;69942;-38
2023/09/22 11:26:42;;;;;;;;;;;;;;;30.64;76.04;100717.03;5013392;28;66057;-38
2023/09/22 11:29:13;;;;;;;;;;;;;;;30.65;76.09;100710.56;5013391;28;69334;-39
2023/09/22 11:31:52;;;;;;;;;;;;;;;30.65;77.27;100707.88;5007532;28;67410;-38
2023/09/22 11:34:24;;;;;;;;;;;;;;;30.66;77.35;100717.63;5009099;28;69921;-37
2023/09/22 11:36:55;;;;;;;;;;;;;;;30.41;77.29;100685.16;5009387;28;65533;-37
2023/09/22 11:39:29;;;;;;;;;;;;;;;30.70;76.92;100729.69;5009671;28;70731;-37
2023/09/22 11:42:01;;;;;;;;;;;;;;;30.71;77.46;100734.03;5009927;28;65510;-38
2023/09/22 11:44:31;;;;;;;;;;;;;;;30.70;77.56;100735.09;5010195;28;70032;-39
2023/09/22 11:47:02;;;;;;;;;;;;;;;30.73;77.62;100740.06;5009046;28;65398;-38
2023/09/22 11:49:36;;;;;;;;;;;;;;;30.76;75.38;100737.94;5010011;28;69631;-38
2023/09/22 11:52:06;;;;;;;;;;;;;;;30.81;74.54;100735.44;5008379;28;65384;-39
2023/09/22 11:54:35;;;;;;;;;;;;;;;30.86;73.68;100746.44;5012421;28;70391;-38
2023/09/22 11:57:05;;;;;;;;;;;;;;;30.90;73.14;100747.66;5008107;28;67009;-39
2023/09/22 11:59:35;;;;;;;;;;;;;;;30.94;72.17;100740.72;5015205;28;70436;-39
2023/09/22 12:02:05;;;;;;;;;;;;;;;30.97;72.37;100744.88;5006233;28;65551;-38
2023/09/22 12:04:37;;;;;;;;;;;;;;;30.99;72.07;100749.00;5015441;28;69171;-40
2023/09/22 12:07:08;;;;;;;;;;;;;;;31.01;72.13;100741.50;5027122;28;66611;-39
2023/09/22 12:09:40;;;;;;;;;;;;;;;31.04;71.83;100740.22;5013038;28;70722;-39
2023/09/22 12:12:09;;;;;;;;;;;;;;;31.04;71.91;100743.75;4990271;28;66423;-38
2023/09/22 12:14:39;;;;;;;;;;;;;;;31.06;72.11;100748.94;5023633;28;70588;-39
2023/09/22 12:17:09;;;;;;;;;;;;;;;31.07;72.38;100746.00;5014998;28;66920;-38
2023/09/22 12:19:39;;;;;;;;;;;;;;;31.07;71.98;100754.16;5014726;28;70316;-40
2023/09/22 12:22:09;;;;;;;;;;;;;;;31.09;74.41;100757.47;5017927;28;66699;-40
2023/09/22 12:24:38;;;;;;;;;;;;;;;31.00;76.45;100755.25;4993748;28;70662;-39
2023/09/22 12:27:08;;;;;;;;;;;;;;;30.86;74.95;100762.69;5013019;28;67024;-38
2023/09/22 12:29:38;;;;;;;;;;;;;;;30.72;73.78;100765.47;5017219;28;69469;-36
2023/09/22 12:32:07;;;;;;;;;;;;;;;30.58;72.31;100766.66;5014808;28;66876;-39
2023/09/22 12:34:37;;;;;;;;;;;;;;;30.49;71.52;100771.50;5016914;28;69253;-37
2023/09/22 12:37:07;;;;;;;;;;;;;;;30.39;70.50;100770.34;4997311;28;66915;-37
2023/09/22 12:39:36;;;;;;;;;;;;;;;30.38;70.07;100779.53;5032743;28;70281;-36
2023/09/22 12:42:06;;;;;;;;;;;;;;;30.39;68.22;100786.56;5015585;28;65769;-38
2023/09/22 12:44:37;;;;;;;;;;;;;;;30.37;66.34;100794.06;5029762;28;69575;-35
2023/09/22 12:47:08;;;;;;;;;;;;;;;30.32;65.39;100804.75;5003729;28;66659;-36
2023/09/22 12:49:38;;;;;;;;;;;;;;;30.25;64.13;100808.31;5008057;28;69838;-36
2023/09/22 12:52:08;;;;;;;;;;;;;;;30.20;63.64;100815.38;5020558;28;65705;-37
2023/09/22 12:54:37;;;;;;;;;;;;;;;30.14;62.75;100805.44;5014227;28;70709;-39